METAR Data
IDs: Format: Raw Decoded Include TAF

Data at: 0254 UTC 18 Jun 2019

PASX 180156Z AUTO 11007KT 10SM OVC075 19/07 A2964 RMK AO2 RAE05 SLP048 P0000 T01940067
PASX 180056Z AUTO 07008KT 040V110 10SM -RA BKN055 OVC075 19/07 A2963 RMK AO2 RAB53 SLP044 P0000 T01940072
PASX 172356Z AUTO VRB04KT 10SM OVC075 19/07 A2963 RMK AO2 SLP043 T01940072 10200 20161 52003
PASX 172256Z AUTO 06005KT 10SM OVC060 19/06 A2963 RMK AO2 SLP043 T01890061
PASX 172156Z AUTO 04007KT 10SM BKN060 19/06 A2962 RMK AO2 SLP040 T01940061
PASX 172056Z AUTO VRB05KT 10SM FEW055 20/07 A2962 RMK AO2 SLP040 T02000067 58005
PASX 171956Z AUTO 03008G14KT 10SM BKN080 18/07 A2963 RMK AO2 SLP044 T01780067
PASX 171856Z AUTO 02008KT 10SM CLR 16/07 A2963 RMK AO2 SLP043 T01610072
PASX 171756Z AUTO 09006KT 10SM CLR 16/07 A2964 RMK AO2 SLP045 T01610067 10161 20028 56008
PASX 171656Z AUTO 00000KT 10SM CLR 13/08 A2965 RMK AO2 SLP048 T01280078
PASX 171556Z AUTO 14003KT 10SM CLR 09/07 A2965 RMK AO2 SLP050 T00940072
PASX 171456Z AUTO 00000KT 10SM CLR 07/06 A2966 RMK AO2 SLP054 T00670056 56010
PASX 171356Z AUTO 00000KT 10SM CLR 04/03 A2967 RMK AO2 SLP057 T00390028
PASX 171256Z AUTO 00000KT 10SM CLR 04/03 A2968 RMK AO2 SLP059 T00390028
PASX 171156Z AUTO 00000KT 10SM CLR 06/04 A2969 RMK AO2 SLP064 T00560039 10133 20044 58016
PASX 171056Z AUTO 00000KT 10SM CLR 07/06 A2971 RMK AO2 SLP069 T00670056
PASX 170956Z AUTO 00000KT 10SM CLR 08/06 A2973 RMK AO2 SLP076 T00780061
PASX 170856Z AUTO 00000KT 10SM CLR 09/07 A2974 RMK AO2 SLP080 T00890067 402000078 58005
PASX 170756Z AUTO 00000KT 8SM CLR 10/08 A2975 RMK AO2 SLP083 T01000078
PASX 170656Z AUTO 32003KT 10SM CLR 12/08 A2976 RMK AO2 SLP086 T01220083
PASX 170556Z AUTO 29005KT 10SM CLR 14/08 A2976 RMK AO2 SLP085 T01390083 10194 20139 55000
PASX 170456Z AUTO 27009KT 10SM FEW038 SCT047 BKN060 16/09 A2975 RMK AO2 SLP083 T01560089
PASX 170356Z AUTO 25004KT 10SM FEW041 OVC060 16/09 A2975 RMK AO2 SLP083 T01610089
PASX 170256Z AUTO 24005KT 10SM OVC055 16/08 A2976 RMK AO2 SLP085 T01610083 58002
PASX 170156Z AUTO 13005KT 10SM CLR 18/06 A2976 RMK AO2 SLP087 T01780056
PASX 170056Z AUTO 09012G15KT 10SM BKN080 19/07 A2976 RMK AO2 SLP088 T01890067
PASX 162356Z AUTO 09012G21KT 10SM SCT070 19/07 A2976 RMK AO2 SLP087 T01940067 10200 20156 56005
PASX 162256Z AUTO 08010KT 10SM FEW048 19/07 A2976 RMK AO2 SLP088 T01940072
PASX 162156Z AUTO 08011KT 10SM BKN050 OVC065 18/07 A2977 RMK AO2 SLP090 T01830067
PASX 162056Z AUTO 05011KT 10SM SCT050 OVC070 18/06 A2978 RMK AO2 SLP092 T01830056 58004
PASX 161956Z AUTO 06007KT 10SM BKN080 18/06 A2978 RMK AO2 SLP094 T01780061
PASX 161856Z AUTO 07009KT 10SM FEW090 17/07 A2979 RMK AO2 SLP095 T01670067
PASX 161756Z AUTO 05010KT 10SM FEW100 16/07 A2979 RMK AO2 SLP096 T01610067 10161 20089 56003
PASX 161656Z AUTO 07010KT 10SM FEW100 15/06 A2979 RMK AO2 SLP096 T01500061
PASX 161556Z AUTO 07011KT 10SM BKN100 14/06 A2979 RMK AO2 SLP097 T01390061
PASX 161456Z AUTO 06006KT 10SM OVC095 12/08 A2979 RMK AO2 SLP099 T01220078 55001